createdAt,value
2022-10-19T00:01:19.712Z,89896.63
2022-10-19T00:06:20.028Z,89895.13
2022-10-19T00:08:46.954Z,89893.78
2022-10-19T00:11:14.258Z,89865.13
2022-10-19T00:13:41.263Z,89867.22
2022-10-19T00:16:14.183Z,89866.66
2022-10-19T00:18:42.388Z,89866.66
2022-10-19T00:21:10.931Z,89871.69
2022-10-19T00:23:37.758Z,89860.44
2022-10-19T00:26:04.699Z,89861.31
2022-10-19T00:28:32.007Z,89849.59
2022-10-19T00:31:03.543Z,89853.91
2022-10-19T00:33:30.666Z,89864.06
2022-10-19T00:35:57.524Z,89860.78
2022-10-19T00:38:24.328Z,89859.69
2022-10-19T00:40:51.292Z,89846.00
2022-10-19T00:43:26.001Z,89842.63
2022-10-19T00:45:53.312Z,89842.53
2022-10-19T00:48:33.346Z,89839.13
2022-10-19T00:51:00.715Z,89834.56
2022-10-19T00:53:30.798Z,89828.47
2022-10-19T00:56:01.043Z,89833.44
2022-10-19T00:58:27.988Z,89818.94
2022-10-19T01:00:55.392Z,89803.38
2022-10-19T01:03:22.432Z,89797.38
2022-10-19T01:05:49.854Z,89805.63
2022-10-19T01:08:17.000Z,89795.91
2022-10-19T01:10:49.240Z,89797.75
2022-10-19T01:13:35.052Z,89786.09
2022-10-19T01:16:12.029Z,89780.78
2022-10-19T01:18:44.404Z,89784.91
2022-10-19T01:21:35.696Z,89774.00
2022-10-19T01:24:15.870Z,89769.13
2022-10-19T01:27:22.153Z,89763.34
2022-10-19T01:29:55.120Z,89756.00
2022-10-19T01:32:38.830Z,89771.03
2022-10-19T01:35:05.603Z,89764.06
2022-10-19T01:38:05.532Z,89762.78
2022-10-19T01:40:54.460Z,89760.13
2022-10-19T01:43:27.194Z,89754.44
2022-10-19T01:46:06.435Z,89763.34
2022-10-19T01:48:38.882Z,89760.03
2022-10-19T01:51:18.916Z,89742.44
2022-10-19T01:53:49.763Z,89737.28
2022-10-19T01:56:20.686Z,89750.16
2022-10-19T01:58:48.699Z,89754.44
2022-10-19T02:01:19.729Z,89749.47
2022-10-19T02:03:47.781Z,89740.41
2022-10-19T02:06:15.071Z,89744.72
2022-10-19T02:08:48.267Z,89747.41
2022-10-19T02:11:16.803Z,89740.59
2022-10-19T02:13:45.182Z,89752.50
2022-10-19T02:16:23.181Z,89733.97
2022-10-19T02:18:53.320Z,89733.16
2022-10-19T02:21:20.683Z,89724.72
2022-10-19T02:23:49.353Z,89733.72
2022-10-19T02:26:19.057Z,89742.06
2022-10-19T02:28:46.632Z,89719.75
2022-10-19T02:31:13.875Z,89720.22
2022-10-19T02:33:40.848Z,89716.19
2022-10-19T02:36:08.069Z,89711.97
2022-10-19T02:38:35.234Z,89712.63
2022-10-19T02:41:14.267Z,89706.66
2022-10-19T02:43:45.412Z,89711.88
2022-10-19T02:49:17.079Z,89711.25
2022-10-19T02:52:00.422Z,89698.44
2022-10-19T02:54:28.243Z,89706.22
2022-10-19T02:56:55.749Z,89702.91
2022-10-19T02:59:22.884Z,89707.50
2022-10-19T03:01:49.827Z,89695.66
2022-10-19T03:04:16.670Z,89709.22
2022-10-19T03:06:44.455Z,89702.59
2022-10-19T03:09:11.385Z,89698.03
2022-10-19T03:11:38.221Z,89709.31
2022-10-19T03:14:05.064Z,89712.81
2022-10-19T03:16:32.006Z,89707.84
2022-10-19T03:18:58.914Z,89707.59
2022-10-19T03:21:25.830Z,89709.22
2022-10-19T03:23:52.775Z,89707.25
2022-10-19T03:26:19.570Z,89710.53
2022-10-19T03:28:46.487Z,89705.78
2022-10-19T03:31:13.318Z,89698.78
2022-10-19T03:33:40.133Z,89698.53
2022-10-19T03:36:21.711Z,89700.00
2022-10-19T03:38:57.148Z,89704.09
2022-10-19T03:41:26.940Z,89695.19
2022-10-19T03:43:54.014Z,89687.41
2022-10-19T03:46:22.155Z,89684.28
2022-10-19T03:48:49.534Z,89684.28
2022-10-19T03:51:24.895Z,89689.63
2022-10-19T03:53:56.853Z,89690.81
2022-10-19T03:56:26.060Z,89687.22
2022-10-19T03:58:55.057Z,89691.78
2022-10-19T04:01:25.601Z,89691.94
2022-10-19T04:04:00.387Z,89697.81
2022-10-19T04:06:29.991Z,89706.50
2022-10-19T04:08:57.490Z,89699.97
2022-10-19T04:11:26.666Z,89690.78
2022-10-19T04:13:55.128Z,89705.91
2022-10-19T04:16:23.058Z,89702.00
2022-10-19T04:18:49.993Z,89701.22
2022-10-19T04:21:43.187Z,89691.19
2022-10-19T04:24:15.426Z,89704.34
2022-10-19T04:26:46.499Z,89697.06
2022-10-19T04:29:14.339Z,89696.88
2022-10-19T04:31:41.308Z,89710.03
2022-10-19T04:34:09.066Z,89709.94
2022-10-19T04:36:36.309Z,89705.53
2022-10-19T04:39:04.760Z,89713.84
2022-10-19T04:41:32.200Z,89715.72
2022-10-19T04:44:02.303Z,89700.72
2022-10-19T04:46:30.293Z,89713.72
2022-10-19T04:48:58.194Z,89705.56
2022-10-19T04:51:25.691Z,89712.38
2022-10-19T04:53:54.455Z,89719.22
2022-10-19T04:56:25.586Z,89725.34
2022-10-19T04:58:56.078Z,89739.41
2022-10-19T05:01:23.694Z,89754.09
2022-10-19T05:03:54.691Z,89762.59
2022-10-19T05:06:21.545Z,89754.78
2022-10-19T05:08:49.230Z,89745.03
2022-10-19T05:11:17.084Z,89747.13
2022-10-19T05:13:44.568Z,89746.34
2022-10-19T05:16:14.299Z,89753.00
2022-10-19T05:18:41.457Z,89748.75
2022-10-19T05:21:14.329Z,89749.13
2022-10-19T05:23:42.085Z,89753.13
2022-10-19T05:26:14.817Z,89751.13
2022-10-19T05:28:41.865Z,89740.06
2022-10-19T05:31:16.100Z,89751.78
2022-10-19T05:33:44.071Z,89750.44
2022-10-19T05:36:13.814Z,89752.34
2022-10-19T05:38:41.633Z,89753.13
2022-10-19T05:41:08.532Z,89749.72
2022-10-19T05:43:35.371Z,89753.72
2022-10-19T05:46:11.189Z,89747.13
2022-10-19T05:48:39.727Z,89759.50
2022-10-19T05:51:10.857Z,89745.25
2022-10-19T05:56:07.292Z,89758.44
2022-10-19T05:58:35.315Z,89767.13
2022-10-19T06:01:02.671Z,89763.88
2022-10-19T06:03:30.298Z,89759.84
2022-10-19T06:05:58.100Z,89760.16
2022-10-19T06:08:25.228Z,89755.72
2022-10-19T06:10:52.101Z,89756.63
2022-10-19T06:13:21.350Z,89754.13
2022-10-19T06:15:51.419Z,89751.69
2022-10-19T06:18:18.231Z,89760.59
2022-10-19T06:20:46.219Z,89749.53
2022-10-19T06:23:13.115Z,89739.81
2022-10-19T06:25:40.848Z,89747.97
2022-10-19T06:28:07.673Z,89746.06
2022-10-19T06:30:34.637Z,89758.25
2022-10-19T06:33:01.514Z,89765.41
2022-10-19T06:35:28.405Z,89754.44
2022-10-19T06:37:57.389Z,89754.50
2022-10-19T06:40:25.254Z,89748.94
2022-10-19T06:42:52.356Z,89745.53
2022-10-19T06:45:19.217Z,89744.78
2022-10-19T06:50:12.991Z,89745.63
2022-10-19T06:52:39.979Z,89759.78
2022-10-19T06:55:07.266Z,89754.53
2022-10-19T06:57:34.258Z,89745.97
2022-10-19T07:00:01.491Z,89754.13
2022-10-19T07:02:28.259Z,89756.81
2022-10-19T07:04:55.042Z,89754.09
2022-10-19T07:07:21.959Z,89757.09
2022-10-19T07:09:49.240Z,89743.13
2022-10-19T07:12:16.230Z,89734.91
2022-10-19T07:14:43.134Z,89747.59
2022-10-19T07:17:12.086Z,89740.59
2022-10-19T07:19:38.960Z,89742.16
2022-10-19T07:22:06.091Z,89731.81
2022-10-19T07:24:32.959Z,89732.31
2022-10-19T07:26:59.746Z,89712.63
2022-10-19T07:31:54.113Z,89701.44
2022-10-19T07:34:23.179Z,89706.09
2022-10-19T07:36:52.413Z,89714.13
2022-10-19T07:39:19.172Z,89711.44
2022-10-19T07:41:46.107Z,89699.50
2022-10-19T07:44:15.741Z,89716.31
2022-10-19T07:46:43.551Z,89705.84
2022-10-19T07:49:14.298Z,89715.31
2022-10-19T07:51:41.388Z,89705.09
2022-10-19T07:54:08.640Z,89704.38
2022-10-19T07:56:35.778Z,89695.84
2022-10-19T07:59:02.963Z,89709.19
2022-10-19T08:01:35.295Z,89700.41
2022-10-19T08:06:49.978Z,89697.91
2022-10-19T08:09:40.126Z,89688.63
2022-10-19T08:12:05.773Z,89692.78
2022-10-19T08:14:33.164Z,89691.53
2022-10-19T08:17:00.789Z,89698.53
2022-10-19T08:19:28.170Z,89681.28
2022-10-19T08:21:54.961Z,89680.69
2022-10-19T08:24:21.857Z,89687.63
2022-10-19T08:26:48.919Z,89692.97
2022-10-19T08:29:18.506Z,89686.13
2022-10-19T08:31:46.759Z,89686.19
2022-10-19T08:34:14.779Z,89687.94
2022-10-19T08:39:14.775Z,89686.31
2022-10-19T08:41:41.569Z,89680.31
2022-10-19T08:44:29.507Z,89677.72
2022-10-19T08:47:02.758Z,89670.63
2022-10-19T08:49:31.904Z,89676.13
2022-10-19T08:52:07.434Z,89661.94
2022-10-19T08:55:08.328Z,89670.63
2022-10-19T08:57:54.642Z,89664.50
2022-10-19T09:00:31.513Z,89665.16
2022-10-19T09:03:04.946Z,89671.72
2022-10-19T09:05:45.163Z,89662.50
2022-10-19T09:08:17.454Z,89652.75
2022-10-19T09:10:48.930Z,89650.28
2022-10-19T09:13:23.087Z,89652.44
2022-10-19T09:15:52.825Z,89647.25
2022-10-19T09:18:28.002Z,89637.25
2022-10-19T09:21:13.268Z,89650.88
2022-10-19T09:23:51.581Z,89640.28
2022-10-19T09:26:21.907Z,89634.34
2022-10-19T09:29:26.803Z,89637.97
2022-10-19T09:34:35.742Z,89627.44
2022-10-19T09:37:03.117Z,89623.28
2022-10-19T09:39:31.013Z,89623.59
2022-10-19T09:41:59.591Z,89626.03
2022-10-19T09:44:27.722Z,89619.66
2022-10-19T09:47:07.966Z,89618.63
2022-10-19T09:49:46.176Z,89620.16
2022-10-19T09:52:49.219Z,89612.16
2022-10-19T09:55:39.135Z,89614.28
2022-10-19T09:58:15.126Z,89608.94
2022-10-19T10:00:53.542Z,89606.09
2022-10-19T10:03:25.334Z,89605.22
2022-10-19T10:05:55.565Z,89588.94
2022-10-19T10:08:25.815Z,89587.78
2022-10-19T10:11:13.905Z,89595.13
2022-10-19T10:13:49.161Z,89589.53
2022-10-19T10:16:18.955Z,89580.50
2022-10-19T10:18:56.263Z,89576.72
2022-10-19T10:21:26.491Z,89581.66
2022-10-19T10:24:07.585Z,89585.03
2022-10-19T10:26:46.150Z,89577.00
2022-10-19T10:29:23.801Z,89577.59
2022-10-19T10:32:07.814Z,89578.06
2022-10-19T10:34:51.333Z,89560.75
2022-10-19T10:37:24.790Z,89556.06
2022-10-19T10:39:53.973Z,89553.97
2022-10-19T10:42:29.646Z,89550.72
2022-10-19T10:44:59.496Z,89557.78
2022-10-19T10:47:28.630Z,89542.22
2022-10-19T10:50:05.259Z,89544.81
2022-10-19T10:52:32.900Z,89537.88
2022-10-19T10:55:09.056Z,89553.59
2022-10-19T10:57:43.960Z,89542.31
2022-10-19T11:00:19.092Z,89540.88
2022-10-19T11:02:52.925Z,89554.69
2022-10-19T11:05:27.790Z,89529.38
2022-10-19T11:08:12.843Z,89527.94
2022-10-19T11:10:56.849Z,89525.69
2022-10-19T11:13:58.902Z,89517.50
2022-10-19T11:16:38.044Z,89524.59
2022-10-19T11:19:17.087Z,89526.94
2022-10-19T11:21:56.684Z,89514.47
2022-10-19T11:24:48.778Z,89517.41
2022-10-19T11:27:52.858Z,89522.06
2022-10-19T11:30:22.191Z,89527.47
2022-10-19T11:33:19.964Z,89517.50
2022-10-19T11:35:58.274Z,89521.50
2022-10-19T11:39:02.347Z,89519.78
2022-10-19T11:41:46.622Z,89531.28
2022-10-19T11:44:40.989Z,89520.75
2022-10-19T11:47:34.232Z,89519.94
2022-10-19T11:50:23.705Z,89520.19
2022-10-19T11:53:02.386Z,89526.50
2022-10-19T11:55:50.800Z,89514.00
2022-10-19T11:58:39.460Z,89512.22
2022-10-19T12:01:50.013Z,89514.63
2022-10-19T12:04:24.750Z,89517.59
2022-10-19T12:07:16.229Z,89520.03
2022-10-19T12:10:15.503Z,89510.97
2022-10-19T12:12:46.526Z,89523.41
2022-10-19T12:15:51.845Z,89511.50
2022-10-19T12:18:47.071Z,89508.28
2022-10-19T12:21:31.429Z,89508.59
2022-10-19T12:24:01.253Z,89510.72
2022-10-19T12:26:32.789Z,89509.28
2022-10-19T12:29:02.764Z,89511.44
2022-10-19T12:31:30.495Z,89507.88
2022-10-19T12:34:23.571Z,89508.41
2022-10-19T12:37:12.747Z,89508.69
2022-10-19T12:40:04.326Z,89502.69
2022-10-19T12:42:45.073Z,89514.81
2022-10-19T12:45:17.822Z,89504.16
2022-10-19T12:48:09.327Z,89506.94
2022-10-19T12:50:56.414Z,89501.25
2022-10-19T12:53:43.709Z,89500.59
2022-10-19T12:56:10.481Z,89505.25
2022-10-19T12:58:47.872Z,89508.22
2022-10-19T13:01:23.927Z,89502.03
2022-10-19T13:04:05.939Z,89495.81
2022-10-19T13:06:36.272Z,89500.31
2022-10-19T13:09:07.122Z,89490.16
2022-10-19T13:14:14.805Z,89501.66
2022-10-19T13:17:00.608Z,89494.69
2022-10-19T13:19:27.774Z,89500.06
2022-10-19T13:22:00.248Z,89497.31
2022-10-19T13:24:35.338Z,89493.38
2022-10-19T13:27:05.183Z,89494.41
2022-10-19T13:29:37.665Z,89480.50
2022-10-19T13:32:37.769Z,89488.97
2022-10-19T13:35:23.314Z,89486.53
2022-10-19T13:38:17.690Z,89489.75
2022-10-19T13:40:50.299Z,89484.09
2022-10-19T13:43:29.796Z,89488.81
2022-10-19T13:46:06.557Z,89476.38
2022-10-19T13:48:50.126Z,89486.13
2022-10-19T13:51:19.711Z,89493.31
2022-10-19T13:54:06.581Z,89484.41
2022-10-19T13:56:53.221Z,89483.97
2022-10-19T13:59:38.575Z,89479.63
2022-10-19T14:02:41.477Z,89480.91
2022-10-19T14:05:17.421Z,89479.50
2022-10-19T14:08:08.766Z,89477.41
2022-10-19T14:10:56.215Z,89484.97
2022-10-19T14:13:24.115Z,89476.19
2022-10-19T14:15:54.207Z,89481.91
2022-10-19T14:18:41.610Z,89475.25
2022-10-19T14:21:10.120Z,89472.63
2022-10-19T14:23:39.212Z,89463.91
2022-10-19T14:26:17.048Z,89475.69
2022-10-19T14:28:43.968Z,89462.91
2022-10-19T14:31:18.447Z,89475.47
2022-10-19T14:33:52.178Z,89466.06
2022-10-19T14:36:25.270Z,89473.97
2022-10-19T14:38:56.426Z,89473.09
2022-10-19T14:44:34.824Z,89473.72
2022-10-19T14:47:02.810Z,89484.28
2022-10-19T14:49:29.652Z,89479.97
2022-10-19T14:52:01.016Z,89482.22
2022-10-19T14:54:35.935Z,89489.59
2022-10-19T14:57:11.185Z,89477.69
2022-10-19T14:59:53.182Z,89484.22
2022-10-19T15:02:43.017Z,89477.63
2022-10-19T15:05:20.448Z,89484.66
2022-10-19T15:07:48.514Z,89474.81
2022-10-19T15:10:29.364Z,89470.56
2022-10-19T15:13:05.695Z,89478.06
2022-10-19T15:15:35.369Z,89473.38
2022-10-19T15:18:02.337Z,89483.56
2022-10-19T15:20:43.816Z,89469.41
2022-10-19T15:23:41.802Z,89477.63
2022-10-19T15:26:27.170Z,89483.44
2022-10-19T15:29:11.075Z,89474.38
2022-10-19T15:31:37.993Z,89486.34
2022-10-19T15:34:05.105Z,89488.38
2022-10-19T15:36:33.163Z,89487.66
2022-10-19T15:39:17.949Z,89486.47
2022-10-19T15:41:50.659Z,89489.38
2022-10-19T15:44:40.696Z,89493.97
2022-10-19T15:47:21.045Z,89481.56
2022-10-19T15:49:55.567Z,89481.09
2022-10-19T15:52:28.477Z,89484.56
2022-10-19T15:54:57.554Z,89483.91
2022-10-19T15:57:27.379Z,89481.97
2022-10-19T15:59:56.130Z,89489.59
2022-10-19T16:02:24.021Z,89493.31
2022-10-19T16:04:52.463Z,89503.31
2022-10-19T16:07:32.596Z,89504.34
2022-10-19T16:09:59.927Z,89504.34
2022-10-19T16:12:27.056Z,89505.16
2022-10-19T16:14:55.062Z,89507.59
2022-10-19T16:17:22.588Z,89511.25
2022-10-19T16:19:49.435Z,89515.16
2022-10-19T16:22:16.614Z,89512.28
2022-10-19T16:24:43.639Z,89513.06
2022-10-19T16:27:10.867Z,89510.38
2022-10-19T16:29:37.833Z,89505.31
2022-10-19T16:32:04.868Z,89511.75
2022-10-19T16:34:31.860Z,89510.59
2022-10-19T16:37:01.483Z,89508.94
2022-10-19T16:39:30.965Z,89514.56
2022-10-19T16:41:57.778Z,89510.94
2022-10-19T16:44:24.699Z,89506.38
2022-10-19T16:46:51.602Z,89509.28
2022-10-19T16:49:18.395Z,89503.69
2022-10-19T16:51:45.435Z,89519.31
2022-10-19T16:54:12.331Z,89515.22
2022-10-19T16:56:47.973Z,89505.44
2022-10-19T16:59:17.244Z,89507.66
2022-10-19T17:01:46.302Z,89515.44
2022-10-19T17:04:15.045Z,89508.66
2022-10-19T17:06:42.153Z,89506.00
2022-10-19T17:11:55.833Z,89505.97
2022-10-19T17:14:22.663Z,89503.28
2022-10-19T17:16:49.581Z,89504.00
2022-10-19T17:19:16.711Z,89496.97
2022-10-19T17:21:43.859Z,89502.34
2022-10-19T17:24:20.395Z,89510.41
2022-10-19T17:26:49.931Z,89499.66
2022-10-19T17:29:16.846Z,89509.16
2022-10-19T17:31:43.775Z,89505.44
2022-10-19T17:34:11.317Z,89501.75
2022-10-19T17:39:17.568Z,89504.34
2022-10-19T17:41:48.380Z,89511.72
2022-10-19T17:44:15.849Z,89512.97
2022-10-19T17:46:42.834Z,89509.09
2022-10-19T17:49:10.066Z,89510.94
2022-10-19T17:51:37.285Z,89505.81
2022-10-19T17:54:11.000Z,89501.84
2022-10-19T17:56:38.742Z,89503.47
2022-10-19T17:59:05.957Z,89502.47
2022-10-19T18:01:32.806Z,89506.66
2022-10-19T18:03:59.812Z,89501.47
2022-10-19T18:06:31.996Z,89502.56
2022-10-19T18:09:00.965Z,89503.34
2022-10-19T18:11:43.165Z,89503.91
2022-10-19T18:14:12.094Z,89505.19
2022-10-19T18:16:45.501Z,89506.13
2022-10-19T18:19:14.630Z,89507.53
2022-10-19T18:21:45.013Z,89508.72
2022-10-19T18:24:15.349Z,89496.88
2022-10-19T18:26:43.447Z,89500.28
2022-10-19T18:29:18.336Z,89510.06
2022-10-19T18:31:45.339Z,89510.56
2022-10-19T18:34:16.229Z,89507.59
2022-10-19T18:36:47.037Z,89501.69
2022-10-19T18:39:14.425Z,89514.81
2022-10-19T18:41:41.837Z,89505.06
2022-10-19T18:44:14.321Z,89502.22
2022-10-19T18:46:41.637Z,89500.38
2022-10-19T18:49:11.104Z,89506.00
2022-10-19T18:51:38.113Z,89500.34
2022-10-19T18:54:05.576Z,89501.44
2022-10-19T18:56:32.346Z,89502.38
2022-10-19T18:58:59.153Z,89506.28
2022-10-19T19:01:28.501Z,89500.44
2022-10-19T19:03:58.560Z,89503.34
2022-10-19T19:06:28.257Z,89514.81
2022-10-19T19:08:59.684Z,89520.44
2022-10-19T19:11:30.710Z,89515.31
2022-10-19T19:14:02.502Z,89518.22
2022-10-19T19:16:32.705Z,89519.41
2022-10-19T19:18:59.492Z,89510.41
2022-10-19T19:21:28.655Z,89517.72
2022-10-19T19:23:57.941Z,89511.84
2022-10-19T19:26:27.645Z,89506.53
2022-10-19T19:28:54.591Z,89515.75
2022-10-19T19:31:21.437Z,89514.81
2022-10-19T19:33:48.805Z,89524.09
2022-10-19T19:36:16.941Z,89515.06
2022-10-19T19:38:45.088Z,89523.22
2022-10-19T19:41:15.156Z,89521.72
2022-10-19T19:43:42.882Z,89518.53
2022-10-19T19:46:13.476Z,89519.22
2022-10-19T19:48:42.196Z,89522.38
2022-10-19T19:51:15.231Z,89511.66
2022-10-19T19:53:42.107Z,89514.63
2022-10-19T19:56:11.182Z,89511.22
2022-10-19T19:58:38.107Z,89510.25
2022-10-19T20:01:12.332Z,89516.56
2022-10-19T20:03:41.014Z,89513.63
2022-10-19T20:06:07.977Z,89513.16
2022-10-19T20:08:35.170Z,89511.44
2022-10-19T20:11:04.322Z,89520.97
2022-10-19T20:13:31.319Z,89514.38
2022-10-19T20:15:58.713Z,89529.50
2022-10-19T20:18:25.764Z,89518.41
2022-10-19T20:20:52.594Z,89512.41
2022-10-19T20:23:20.630Z,89509.03
2022-10-19T20:25:47.545Z,89511.72
2022-10-19T20:28:14.557Z,89511.94
2022-10-19T20:30:41.416Z,89507.31
2022-10-19T20:33:08.381Z,89499.00
2022-10-19T20:35:36.603Z,89515.28
2022-10-19T20:38:03.580Z,89507.00
2022-10-19T20:40:30.628Z,89512.16
2022-10-19T20:42:57.559Z,89510.72
2022-10-19T20:45:24.814Z,89511.44
2022-10-19T20:47:51.793Z,89502.91
2022-10-19T20:50:21.714Z,89518.94
2022-10-19T20:52:49.137Z,89507.06
2022-10-19T20:55:16.149Z,89506.56
2022-10-19T20:57:43.031Z,89493.94
2022-10-19T21:00:10.598Z,89500.03
2022-10-19T21:02:37.858Z,89508.53
2022-10-19T21:05:05.230Z,89505.63
2022-10-19T21:07:32.069Z,89507.06
2022-10-19T21:09:58.983Z,89513.63
2022-10-19T21:12:25.866Z,89510.72
2022-10-19T21:14:52.694Z,89507.53
2022-10-19T21:17:19.767Z,89492.72
2022-10-19T21:19:46.653Z,89492.47
2022-10-19T21:22:13.614Z,89489.59
2022-10-19T21:24:40.706Z,89493.22
2022-10-19T21:27:09.298Z,89500.28
2022-10-19T21:29:37.278Z,89503.69
2022-10-19T21:32:04.826Z,89499.78
2022-10-19T21:34:32.167Z,89495.16
2022-10-19T21:36:59.223Z,89506.31
2022-10-19T21:39:26.143Z,89500.75
2022-10-19T21:41:53.172Z,89500.50
2022-10-19T21:44:20.022Z,89495.16
2022-10-19T21:46:50.703Z,89490.50
2022-10-19T21:49:18.332Z,89491.94
2022-10-19T21:51:51.166Z,89492.69
2022-10-19T21:54:20.309Z,89488.09
2022-10-19T21:56:48.263Z,89481.31
2022-10-19T21:59:15.634Z,89482.53
2022-10-19T22:01:42.861Z,89483.47
2022-10-19T22:04:14.239Z,89484.94
2022-10-19T22:06:42.024Z,89475.44
2022-10-19T22:09:12.557Z,89482.72
2022-10-19T22:11:39.772Z,89484.16
2022-10-19T22:14:06.615Z,89489.50
2022-10-19T22:16:34.501Z,89483.41
2022-10-19T22:19:01.395Z,89483.19
2022-10-19T22:21:31.180Z,89477.41
2022-10-19T22:24:04.150Z,89474.78
2022-10-19T22:26:33.370Z,89481.56
2022-10-19T22:29:01.719Z,89476.94
2022-10-19T22:31:31.184Z,89484.22
2022-10-19T22:34:01.072Z,89480.31
2022-10-19T22:36:27.987Z,89484.69
2022-10-19T22:38:54.802Z,89484.94
2022-10-19T22:41:58.973Z,89470.56
2022-10-19T22:44:44.711Z,89481.03
2022-10-19T22:47:30.294Z,89472.06
2022-10-19T22:49:57.126Z,89472.78
2022-10-19T22:52:23.975Z,89469.88
2022-10-19T22:54:50.932Z,89466.97
2022-10-19T22:57:17.707Z,89466.72
2022-10-19T22:59:44.668Z,89474.25
2022-10-19T23:02:11.655Z,89474.00
2022-10-19T23:04:38.495Z,89476.69
2022-10-19T23:07:05.503Z,89477.16
2022-10-19T23:09:32.563Z,89475.22
2022-10-19T23:11:59.506Z,89475.47
2022-10-19T23:14:26.383Z,89473.78
2022-10-19T23:16:53.359Z,89479.63
2022-10-19T23:19:20.399Z,89476.69
2022-10-19T23:21:47.228Z,89483.50
2022-10-19T23:24:14.238Z,89490.56
2022-10-19T23:26:41.092Z,89491.28
2022-10-19T23:29:08.075Z,89485.69
2022-10-19T23:31:34.983Z,89476.94
2022-10-19T23:34:01.974Z,89480.84
2022-10-19T23:36:29.313Z,89475.72
2022-10-19T23:38:57.537Z,89468.19
2022-10-19T23:41:24.415Z,89482.53
2022-10-19T23:43:51.557Z,89472.31
2022-10-19T23:46:18.751Z,89478.06
2022-10-19T23:48:45.561Z,89482.81
2022-10-19T23:51:15.373Z,89470.72
2022-10-19T23:53:44.515Z,89473.19
2022-10-19T23:56:15.111Z,89464.69
2022-10-19T23:58:42.418Z,89463.94
